sensor_id;sensor_type;location;lat;lon;timestamp;P1;durP1;ratioP1;P2;durP2;ratioP2
47373;SDS011;33123;50.118;10.272;2023-05-10T00:02:10;3.70;;;2.30;;
47373;SDS011;33123;50.118;10.272;2023-05-10T00:04:38;2.50;;;1.92;;
47373;SDS011;33123;50.118;10.272;2023-05-10T00:07:05;3.67;;;2.33;;
47373;SDS011;33123;50.118;10.272;2023-05-10T00:09:31;4.72;;;2.85;;
47373;SDS011;33123;50.118;10.272;2023-05-10T00:11:58;3.20;;;2.30;;
47373;SDS011;33123;50.118;10.272;2023-05-10T00:14:25;2.63;;;2.42;;
47373;SDS011;33123;50.118;10.272;2023-05-10T00:16:52;2.70;;;2.47;;
47373;SDS011;33123;50.118;10.272;2023-05-10T00:19:18;2.97;;;2.67;;
47373;SDS011;33123;50.118;10.272;2023-05-10T00:21:46;2.50;;;2.28;;
47373;SDS011;33123;50.118;10.272;2023-05-10T00:24:13;3.55;;;2.70;;
47373;SDS011;33123;50.118;10.272;2023-05-10T00:26:39;2.47;;;2.03;;
47373;SDS011;33123;50.118;10.272;2023-05-10T00:29:07;2.08;;;1.85;;
47373;SDS011;33123;50.118;10.272;2023-05-10T00:31:33;4.93;;;2.33;;
47373;SDS011;33123;50.118;10.272;2023-05-10T00:34:00;2.15;;;1.70;;
47373;SDS011;33123;50.118;10.272;2023-05-10T00:36:27;2.38;;;2.15;;
47373;SDS011;33123;50.118;10.272;2023-05-10T00:38:55;2.65;;;2.13;;
47373;SDS011;33123;50.118;10.272;2023-05-10T00:41:21;2.03;;;1.92;;
47373;SDS011;33123;50.118;10.272;2023-05-10T00:43:48;2.50;;;2.30;;
47373;SDS011;33123;50.118;10.272;2023-05-10T00:46:14;3.17;;;2.38;;
47373;SDS011;33123;50.118;10.272;2023-05-10T00:48:42;2.75;;;2.22;;
47373;SDS011;33123;50.118;10.272;2023-05-10T00:51:10;2.05;;;1.85;;
47373;SDS011;33123;50.118;10.272;2023-05-10T00:53:37;2.15;;;1.95;;
47373;SDS011;33123;50.118;10.272;2023-05-10T00:56:05;2.83;;;2.33;;
47373;SDS011;33123;50.118;10.272;2023-05-10T00:58:41;2.47;;;2.10;;
47373;SDS011;33123;50.118;10.272;2023-05-10T01:01:08;2.50;;;2.30;;
47373;SDS011;33123;50.118;10.272;2023-05-10T01:03:36;6.85;;;1.88;;
47373;SDS011;33123;50.118;10.272;2023-05-10T01:06:04;2.10;;;1.90;;
47373;SDS011;33123;50.118;10.272;2023-05-10T01:08:31;2.65;;;2.15;;
47373;SDS011;33123;50.118;10.272;2023-05-10T01:10:58;1.63;;;1.52;;
47373;SDS011;33123;50.118;10.272;2023-05-10T01:13:29;3.83;;;2.13;;
47373;SDS011;33123;50.118;10.272;2023-05-10T01:15:59;1.88;;;1.77;;
47373;SDS011;33123;50.118;10.272;2023-05-10T01:18:26;1.25;;;1.15;;
47373;SDS011;33123;50.118;10.272;2023-05-10T01:20:57;1.42;;;1.33;;
47373;SDS011;33123;50.118;10.272;2023-05-10T01:23:43;1.63;;;1.52;;
47373;SDS011;33123;50.118;10.272;2023-05-10T01:26:37;5.18;;;2.03;;
47373;SDS011;33123;50.118;10.272;2023-05-10T01:29:29;1.75;;;1.65;;
47373;SDS011;33123;50.118;10.272;2023-05-10T01:32:30;1.63;;;1.50;;
47373;SDS011;33123;50.118;10.272;2023-05-10T01:35:02;1.40;;;1.17;;
47373;SDS011;33123;50.118;10.272;2023-05-10T01:37:35;1.98;;;1.40;;
47373;SDS011;33123;50.118;10.272;2023-05-10T01:40:08;1.77;;;1.65;;
47373;SDS011;33123;50.118;10.272;2023-05-10T01:42:45;2.25;;;1.80;;
47373;SDS011;33123;50.118;10.272;2023-05-10T01:45:18;1.33;;;1.17;;
47373;SDS011;33123;50.118;10.272;2023-05-10T01:47:53;3.47;;;2.33;;
47373;SDS011;33123;50.118;10.272;2023-05-10T01:50:29;2.15;;;1.55;;
47373;SDS011;33123;50.118;10.272;2023-05-10T01:52:57;1.20;;;1.10;;
47373;SDS011;33123;50.118;10.272;2023-05-10T01:55:26;1.67;;;1.48;;
47373;SDS011;33123;50.118;10.272;2023-05-10T01:57:58;1.67;;;1.58;;
47373;SDS011;33123;50.118;10.272;2023-05-10T02:00:29;1.35;;;1.25;;
47373;SDS011;33123;50.118;10.272;2023-05-10T02:02:58;1.77;;;1.35;;
47373;SDS011;33123;50.118;10.272;2023-05-10T02:05:27;1.05;;;0.98;;
47373;SDS011;33123;50.118;10.272;2023-05-10T02:07:56;1.52;;;1.42;;
47373;SDS011;33123;50.118;10.272;2023-05-10T02:10:25;1.70;;;1.60;;
47373;SDS011;33123;50.118;10.272;2023-05-10T02:12:53;1.60;;;1.50;;
47373;SDS011;33123;50.118;10.272;2023-05-10T02:15:22;0.93;;;0.93;;
47373;SDS011;33123;50.118;10.272;2023-05-10T02:17:50;0.90;;;0.90;;
47373;SDS011;33123;50.118;10.272;2023-05-10T02:20:22;1.95;;;1.20;;
47373;SDS011;33123;50.118;10.272;2023-05-10T02:22:50;1.52;;;1.30;;
47373;SDS011;33123;50.118;10.272;2023-05-10T02:25:20;1.23;;;1.13;;
47373;SDS011;33123;50.118;10.272;2023-05-10T02:27:48;1.00;;;0.98;;
47373;SDS011;33123;50.118;10.272;2023-05-10T02:30:16;3.33;;;1.65;;
47373;SDS011;33123;50.118;10.272;2023-05-10T02:32:44;1.20;;;1.10;;
47373;SDS011;33123;50.118;10.272;2023-05-10T02:35:11;1.83;;;1.73;;
47373;SDS011;33123;50.118;10.272;2023-05-10T02:37:40;2.05;;;1.23;;
47373;SDS011;33123;50.118;10.272;2023-05-10T02:40:08;1.48;;;1.38;;
47373;SDS011;33123;50.118;10.272;2023-05-10T02:42:37;1.00;;;1.00;;
47373;SDS011;33123;50.118;10.272;2023-05-10T02:45:05;1.55;;;1.45;;
47373;SDS011;33123;50.118;10.272;2023-05-10T02:47:36;1.35;;;1.25;;
47373;SDS011;33123;50.118;10.272;2023-05-10T02:50:04;2.00;;;1.65;;
47373;SDS011;33123;50.118;10.272;2023-05-10T02:52:36;0.88;;;0.88;;
47373;SDS011;33123;50.118;10.272;2023-05-10T02:55:09;0.60;;;0.60;;
47373;SDS011;33123;50.118;10.272;2023-05-10T02:57:38;0.60;;;0.60;;
47373;SDS011;33123;50.118;10.272;2023-05-10T03:00:10;0.90;;;0.90;;
47373;SDS011;33123;50.118;10.272;2023-05-10T03:02:37;1.42;;;1.33;;
47373;SDS011;33123;50.118;10.272;2023-05-10T03:05:04;0.52;;;0.52;;
47373;SDS011;33123;50.118;10.272;2023-05-10T03:07:31;0.60;;;0.60;;
47373;SDS011;33123;50.118;10.272;2023-05-10T03:09:59;0.47;;;0.47;;
47373;SDS011;33123;50.118;10.272;2023-05-10T03:12:28;0.50;;;0.50;;
47373;SDS011;33123;50.118;10.272;2023-05-10T03:15:03;0.40;;;0.40;;
47373;SDS011;33123;50.118;10.272;2023-05-10T03:17:40;0.50;;;0.50;;
47373;SDS011;33123;50.118;10.272;2023-05-10T03:20:15;0.60;;;0.60;;
47373;SDS011;33123;50.118;10.272;2023-05-10T03:22:51;0.45;;;0.45;;
47373;SDS011;33123;50.118;10.272;2023-05-10T03:25:22;0.73;;;0.73;;
47373;SDS011;33123;50.118;10.272;2023-05-10T03:27:50;0.50;;;0.50;;
47373;SDS011;33123;50.118;10.272;2023-05-10T03:30:18;0.60;;;0.60;;
47373;SDS011;33123;50.118;10.272;2023-05-10T03:32:46;0.85;;;0.85;;
47373;SDS011;33123;50.118;10.272;2023-05-10T03:35:12;4.13;;;0.80;;
47373;SDS011;33123;50.118;10.272;2023-05-10T03:37:39;0.65;;;0.65;;
47373;SDS011;33123;50.118;10.272;2023-05-10T03:40:06;0.40;;;0.40;;
47373;SDS011;33123;50.118;10.272;2023-05-10T03:42:35;0.50;;;0.50;;
47373;SDS011;33123;50.118;10.272;2023-05-10T03:45:02;0.43;;;0.43;;
47373;SDS011;33123;50.118;10.272;2023-05-10T03:47:29;0.60;;;0.60;;
47373;SDS011;33123;50.118;10.272;2023-05-10T03:49:55;0.98;;;0.70;;
47373;SDS011;33123;50.118;10.272;2023-05-10T03:52:22;0.50;;;0.50;;
47373;SDS011;33123;50.118;10.272;2023-05-10T03:54:48;0.57;;;0.57;;
47373;SDS011;33123;50.118;10.272;2023-05-10T03:57:15;0.40;;;0.40;;
47373;SDS011;33123;50.118;10.272;2023-05-10T03:59:43;0.50;;;0.50;;
47373;SDS011;33123;50.118;10.272;2023-05-10T04:02:10;0.60;;;0.60;;
47373;SDS011;33123;50.118;10.272;2023-05-10T04:04:37;0.45;;;0.45;;
47373;SDS011;33123;50.118;10.272;2023-05-10T04:07:03;0.80;;;0.60;;
47373;SDS011;33123;50.118;10.272;2023-05-10T04:09:30;0.70;;;0.70;;
47373;SDS011;33123;50.118;10.272;2023-05-10T04:11:58;0.40;;;0.40;;
47373;SDS011;33123;50.118;10.272;2023-05-10T04:14:25;0.50;;;0.50;;
47373;SDS011;33123;50.118;10.272;2023-05-10T04:16:52;0.60;;;0.60;;
47373;SDS011;33123;50.118;10.272;2023-05-10T04:19:20;0.68;;;0.68;;
47373;SDS011;33123;50.118;10.272;2023-05-10T04:21:46;0.90;;;0.90;;
47373;SDS011;33123;50.118;10.272;2023-05-10T04:24:13;0.50;;;0.50;;
47373;SDS011;33123;50.118;10.272;2023-05-10T04:26:40;0.50;;;0.50;;
47373;SDS011;33123;50.118;10.272;2023-05-10T04:29:06;0.40;;;0.40;;
47373;SDS011;33123;50.118;10.272;2023-05-10T04:31:33;0.52;;;0.50;;
47373;SDS011;33123;50.118;10.272;2023-05-10T04:34:02;0.63;;;0.63;;
47373;SDS011;33123;50.118;10.272;2023-05-10T04:36:30;0.55;;;0.55;;
47373;SDS011;33123;50.118;10.272;2023-05-10T04:38:57;0.40;;;0.40;;
47373;SDS011;33123;50.118;10.272;2023-05-10T04:41:24;0.40;;;0.40;;
47373;SDS011;33123;50.118;10.272;2023-05-10T04:43:50;1.40;;;1.30;;
47373;SDS011;33123;50.118;10.272;2023-05-10T04:46:17;0.60;;;0.60;;
47373;SDS011;33123;50.118;10.272;2023-05-10T04:48:44;0.50;;;0.50;;
47373;SDS011;33123;50.118;10.272;2023-05-10T04:51:12;0.50;;;0.50;;
47373;SDS011;33123;50.118;10.272;2023-05-10T04:53:39;0.43;;;0.43;;
47373;SDS011;33123;50.118;10.272;2023-05-10T04:56:06;0.50;;;0.50;;
47373;SDS011;33123;50.118;10.272;2023-05-10T04:58:33;0.60;;;0.60;;
47373;SDS011;33123;50.118;10.272;2023-05-10T05:01:04;0.60;;;0.60;;
47373;SDS011;33123;50.118;10.272;2023-05-10T05:03:32;0.40;;;0.40;;
47373;SDS011;33123;50.118;10.272;2023-05-10T05:05:58;0.75;;;0.75;;
47373;SDS011;33123;50.118;10.272;2023-05-10T05:08:26;0.75;;;0.75;;
47373;SDS011;33123;50.118;10.272;2023-05-10T05:10:53;1.15;;;1.08;;
47373;SDS011;33123;50.118;10.272;2023-05-10T05:13:19;0.60;;;0.60;;
47373;SDS011;33123;50.118;10.272;2023-05-10T05:15:46;2.25;;;0.70;;
47373;SDS011;33123;50.118;10.272;2023-05-10T05:18:13;0.65;;;0.65;;
47373;SDS011;33123;50.118;10.272;2023-05-10T05:20:39;0.60;;;0.60;;
47373;SDS011;33123;50.118;10.272;2023-05-10T05:23:06;0.50;;;0.50;;
47373;SDS011;33123;50.118;10.272;2023-05-10T05:25:34;0.60;;;0.60;;
47373;SDS011;33123;50.118;10.272;2023-05-10T05:28:00;0.52;;;0.52;;
47373;SDS011;33123;50.118;10.272;2023-05-10T05:30:27;0.50;;;0.50;;
47373;SDS011;33123;50.118;10.272;2023-05-10T05:32:54;0.57;;;0.57;;
47373;SDS011;33123;50.118;10.272;2023-05-10T05:35:21;0.55;;;0.55;;
47373;SDS011;33123;50.118;10.272;2023-05-10T05:37:48;0.50;;;0.50;;
47373;SDS011;33123;50.118;10.272;2023-05-10T05:40:14;0.60;;;0.60;;
47373;SDS011;33123;50.118;10.272;2023-05-10T05:42:42;1.20;;;1.10;;
47373;SDS011;33123;50.118;10.272;2023-05-10T05:45:09;0.70;;;0.70;;
47373;SDS011;33123;50.118;10.272;2023-05-10T05:47:38;0.40;;;0.40;;
47373;SDS011;33123;50.118;10.272;2023-05-10T05:50:05;0.77;;;0.77;;
47373;SDS011;33123;50.118;10.272;2023-05-10T05:52:32;0.70;;;0.70;;
47373;SDS011;33123;50.118;10.272;2023-05-10T05:54:58;0.68;;;0.68;;
47373;SDS011;33123;50.118;10.272;2023-05-10T05:57:26;0.65;;;0.65;;
47373;SDS011;33123;50.118;10.272;2023-05-10T05:59:54;0.50;;;0.50;;
47373;SDS011;33123;50.118;10.272;2023-05-10T06:02:21;0.52;;;0.52;;
47373;SDS011;33123;50.118;10.272;2023-05-10T06:04:47;0.75;;;0.75;;
47373;SDS011;33123;50.118;10.272;2023-05-10T06:07:14;0.70;;;0.70;;
47373;SDS011;33123;50.118;10.272;2023-05-10T06:09:40;0.60;;;0.60;;
47373;SDS011;33123;50.118;10.272;2023-05-10T06:12:07;0.60;;;0.60;;
47373;SDS011;33123;50.118;10.272;2023-05-10T06:14:34;0.50;;;0.50;;
47373;SDS011;33123;50.118;10.272;2023-05-10T06:17:02;0.57;;;0.57;;
47373;SDS011;33123;50.118;10.272;2023-05-10T06:19:30;0.70;;;0.70;;
47373;SDS011;33123;50.118;10.272;2023-05-10T06:21:56;0.80;;;0.80;;
47373;SDS011;33123;50.118;10.272;2023-05-10T06:24:23;0.80;;;0.80;;
47373;SDS011;33123;50.118;10.272;2023-05-10T06:26:49;0.60;;;0.60;;
47373;SDS011;33123;50.118;10.272;2023-05-10T06:29:16;0.90;;;0.90;;
47373;SDS011;33123;50.118;10.272;2023-05-10T06:31:43;0.65;;;0.65;;
47373;SDS011;33123;50.118;10.272;2023-05-10T06:34:11;0.80;;;0.80;;
47373;SDS011;33123;50.118;10.272;2023-05-10T06:36:38;1.35;;;0.88;;
47373;SDS011;33123;50.118;10.272;2023-05-10T06:39:05;0.70;;;0.70;;
47373;SDS011;33123;50.118;10.272;2023-05-10T06:41:32;0.43;;;0.43;;
47373;SDS011;33123;50.118;10.272;2023-05-10T06:43:58;0.50;;;0.50;;
47373;SDS011;33123;50.118;10.272;2023-05-10T06:46:25;0.60;;;0.60;;
47373;SDS011;33123;50.118;10.272;2023-05-10T06:48:52;0.73;;;0.73;;
47373;SDS011;33123;50.118;10.272;2023-05-10T06:51:21;0.70;;;0.70;;
47373;SDS011;33123;50.118;10.272;2023-05-10T06:54:00;0.50;;;0.50;;
47373;SDS011;33123;50.118;10.272;2023-05-10T06:56:30;0.43;;;0.43;;
47373;SDS011;33123;50.118;10.272;2023-05-10T06:58:56;0.82;;;0.82;;
47373;SDS011;33123;50.118;10.272;2023-05-10T07:01:23;0.77;;;0.77;;
47373;SDS011;33123;50.118;10.272;2023-05-10T07:03:50;0.60;;;0.60;;
47373;SDS011;33123;50.118;10.272;2023-05-10T07:06:16;0.60;;;0.60;;
47373;SDS011;33123;50.118;10.272;2023-05-10T07:08:44;0.82;;;0.82;;
47373;SDS011;33123;50.118;10.272;2023-05-10T07:11:11;0.65;;;0.65;;
47373;SDS011;33123;50.118;10.272;2023-05-10T07:13:38;0.40;;;0.40;;
47373;SDS011;33123;50.118;10.272;2023-05-10T07:16:09;0.50;;;0.50;;
47373;SDS011;33123;50.118;10.272;2023-05-10T07:18:36;0.52;;;0.52;;
47373;SDS011;33123;50.118;10.272;2023-05-10T07:21:02;0.70;;;0.70;;
47373;SDS011;33123;50.118;10.272;2023-05-10T07:23:29;0.85;;;0.80;;
47373;SDS011;33123;50.118;10.272;2023-05-10T07:25:58;0.50;;;0.50;;
47373;SDS011;33123;50.118;10.272;2023-05-10T07:28:25;0.80;;;0.80;;
47373;SDS011;33123;50.118;10.272;2023-05-10T07:30:51;0.55;;;0.55;;
47373;SDS011;33123;50.118;10.272;2023-05-10T07:33:18;0.60;;;0.60;;
47373;SDS011;33123;50.118;10.272;2023-05-10T07:35:45;0.80;;;0.80;;
47373;SDS011;33123;50.118;10.272;2023-05-10T07:38:11;0.60;;;0.60;;
47373;SDS011;33123;50.118;10.272;2023-05-10T07:40:38;0.70;;;0.70;;
47373;SDS011;33123;50.118;10.272;2023-05-10T07:43:06;0.63;;;0.63;;
47373;SDS011;33123;50.118;10.272;2023-05-10T07:45:33;0.50;;;0.50;;
47373;SDS011;33123;50.118;10.272;2023-05-10T07:48:00;0.60;;;0.60;;
47373;SDS011;33123;50.118;10.272;2023-05-10T07:50:26;0.82;;;0.82;;
47373;SDS011;33123;50.118;10.272;2023-05-10T07:52:53;0.60;;;0.60;;
47373;SDS011;33123;50.118;10.272;2023-05-10T07:55:20;1.10;;;0.80;;
47373;SDS011;33123;50.118;10.272;2023-05-10T07:57:47;0.60;;;0.60;;
47373;SDS011;33123;50.118;10.272;2023-05-10T08:00:16;0.80;;;0.80;;
47373;SDS011;33123;50.118;10.272;2023-05-10T08:02:44;0.80;;;0.80;;
47373;SDS011;33123;50.118;10.272;2023-05-10T08:05:10;0.85;;;0.85;;
47373;SDS011;33123;50.118;10.272;2023-05-10T08:07:37;1.27;;;1.17;;
47373;SDS011;33123;50.118;10.272;2023-05-10T08:10:04;0.70;;;0.70;;
47373;SDS011;33123;50.118;10.272;2023-05-10T08:12:32;0.77;;;0.77;;
47373;SDS011;33123;50.118;10.272;2023-05-10T08:14:58;0.73;;;0.73;;
47373;SDS011;33123;50.118;10.272;2023-05-10T08:17:26;0.95;;;0.95;;
47373;SDS011;33123;50.118;10.272;2023-05-10T08:19:53;0.95;;;0.95;;
47373;SDS011;33123;50.118;10.272;2023-05-10T08:22:22;0.70;;;0.70;;
47373;SDS011;33123;50.118;10.272;2023-05-10T08:24:48;2.08;;;1.00;;
47373;SDS011;33123;50.118;10.272;2023-05-10T08:27:15;0.98;;;0.98;;
47373;SDS011;33123;50.118;10.272;2023-05-10T08:29:42;1.00;;;1.00;;
47373;SDS011;33123;50.118;10.272;2023-05-10T08:32:08;0.70;;;0.70;;
47373;SDS011;33123;50.118;10.272;2023-05-10T08:34:36;0.60;;;0.60;;
47373;SDS011;33123;50.118;10.272;2023-05-10T08:37:03;1.40;;;0.88;;
47373;SDS011;33123;50.118;10.272;2023-05-10T08:39:33;0.60;;;0.60;;
47373;SDS011;33123;50.118;10.272;2023-05-10T08:42:01;0.85;;;0.85;;
47373;SDS011;33123;50.118;10.272;2023-05-10T08:44:30;0.95;;;0.93;;
47373;SDS011;33123;50.118;10.272;2023-05-10T08:46:58;1.42;;;1.08;;
47373;SDS011;33123;50.118;10.272;2023-05-10T08:49:26;0.93;;;0.93;;
47373;SDS011;33123;50.118;10.272;2023-05-10T08:51:56;0.65;;;0.65;;
47373;SDS011;33123;50.118;10.272;2023-05-10T08:54:23;1.27;;;1.17;;
47373;SDS011;33123;50.118;10.272;2023-05-10T08:56:50;0.68;;;0.68;;
47373;SDS011;33123;50.118;10.272;2023-05-10T08:59:18;0.93;;;0.93;;
47373;SDS011;33123;50.118;10.272;2023-05-10T09:01:45;0.82;;;0.82;;
47373;SDS011;33123;50.118;10.272;2023-05-10T09:04:14;0.85;;;0.85;;
47373;SDS011;33123;50.118;10.272;2023-05-10T09:06:41;2.15;;;0.95;;
47373;SDS011;33123;50.118;10.272;2023-05-10T09:09:09;0.70;;;0.70;;
47373;SDS011;33123;50.118;10.272;2023-05-10T09:11:36;0.85;;;0.85;;
47373;SDS011;33123;50.118;10.272;2023-05-10T09:14:02;0.70;;;0.70;;
47373;SDS011;33123;50.118;10.272;2023-05-10T09:16:29;0.75;;;0.75;;
47373;SDS011;33123;50.118;10.272;2023-05-10T09:18:56;0.55;;;0.55;;
47373;SDS011;33123;50.118;10.272;2023-05-10T09:21:22;0.85;;;0.80;;
47373;SDS011;33123;50.118;10.272;2023-05-10T09:23:49;1.10;;;0.95;;
47373;SDS011;33123;50.118;10.272;2023-05-10T09:26:23;0.75;;;0.75;;
47373;SDS011;33123;50.118;10.272;2023-05-10T09:28:50;0.82;;;0.82;;
47373;SDS011;33123;50.118;10.272;2023-05-10T09:31:17;0.70;;;0.70;;
47373;SDS011;33123;50.118;10.272;2023-05-10T09:33:44;0.63;;;0.63;;
47373;SDS011;33123;50.118;10.272;2023-05-10T09:36:12;0.80;;;0.80;;
47373;SDS011;33123;50.118;10.272;2023-05-10T09:38:45;0.65;;;0.65;;
47373;SDS011;33123;50.118;10.272;2023-05-10T09:41:17;0.70;;;0.70;;
47373;SDS011;33123;50.118;10.272;2023-05-10T09:43:46;0.80;;;0.80;;
47373;SDS011;33123;50.118;10.272;2023-05-10T09:46:13;3.13;;;0.80;;
47373;SDS011;33123;50.118;10.272;2023-05-10T09:48:41;4.03;;;2.83;;
47373;SDS011;33123;50.118;10.272;2023-05-10T09:51:09;1.00;;;1.00;;
47373;SDS011;33123;50.118;10.272;2023-05-10T09:53:36;1.15;;;1.10;;
47373;SDS011;33123;50.118;10.272;2023-05-10T09:56:02;0.95;;;0.93;;
47373;SDS011;33123;50.118;10.272;2023-05-10T09:58:29;2.38;;;1.65;;
47373;SDS011;33123;50.118;10.272;2023-05-10T10:00:57;1.00;;;1.00;;
47373;SDS011;33123;50.118;10.272;2023-05-10T10:03:24;0.98;;;0.98;;
47373;SDS011;33123;50.118;10.272;2023-05-10T10:05:51;0.77;;;0.77;;
47373;SDS011;33123;50.118;10.272;2023-05-10T10:08:18;0.75;;;0.75;;
47373;SDS011;33123;50.118;10.272;2023-05-10T10:10:45;0.77;;;0.77;;
47373;SDS011;33123;50.118;10.272;2023-05-10T10:13:13;0.93;;;0.93;;
47373;SDS011;33123;50.118;10.272;2023-05-10T10:15:40;1.00;;;0.85;;
47373;SDS011;33123;50.118;10.272;2023-05-10T10:18:12;1.75;;;1.08;;
47373;SDS011;33123;50.118;10.272;2023-05-10T10:20:40;1.35;;;1.25;;
47373;SDS011;33123;50.118;10.272;2023-05-10T10:23:07;2.63;;;1.52;;
47373;SDS011;33123;50.118;10.272;2023-05-10T10:25:34;0.80;;;0.80;;
47373;SDS011;33123;50.118;10.272;2023-05-10T10:28:15;1.30;;;1.20;;
47373;SDS011;33123;50.118;10.272;2023-05-10T10:30:49;1.00;;;1.00;;
47373;SDS011;33123;50.118;10.272;2023-05-10T10:33:30;0.82;;;0.82;;
47373;SDS011;33123;50.118;10.272;2023-05-10T10:36:06;0.90;;;0.90;;
47373;SDS011;33123;50.118;10.272;2023-05-10T10:38:36;1.33;;;1.23;;
47373;SDS011;33123;50.118;10.272;2023-05-10T10:41:09;0.73;;;0.73;;
47373;SDS011;33123;50.118;10.272;2023-05-10T10:43:36;1.13;;;1.02;;
47373;SDS011;33123;50.118;10.272;2023-05-10T10:46:12;0.90;;;0.90;;
47373;SDS011;33123;50.118;10.272;2023-05-10T10:48:46;1.27;;;1.17;;
47373;SDS011;33123;50.118;10.272;2023-05-10T10:51:14;1.30;;;1.20;;
47373;SDS011;33123;50.118;10.272;2023-05-10T10:53:53;0.90;;;0.90;;
47373;SDS011;33123;50.118;10.272;2023-05-10T10:56:21;1.10;;;1.00;;
47373;SDS011;33123;50.118;10.272;2023-05-10T10:58:49;0.77;;;0.77;;
47373;SDS011;33123;50.118;10.272;2023-05-10T11:01:18;1.48;;;1.02;;
47373;SDS011;33123;50.118;10.272;2023-05-10T11:06:45;4.25;;;3.35;;
47373;SDS011;33123;50.118;10.272;2023-05-10T11:09:12;2.05;;;1.60;;
47373;SDS011;33123;50.118;10.272;2023-05-10T11:11:48;2.70;;;1.00;;
47373;SDS011;33123;50.118;10.272;2023-05-10T11:14:19;2.25;;;1.98;;
47373;SDS011;33123;50.118;10.272;2023-05-10T11:16:46;1.00;;;1.00;;
47373;SDS011;33123;50.118;10.272;2023-05-10T11:19:13;1.00;;;1.00;;
47373;SDS011;33123;50.118;10.272;2023-05-10T11:21:47;0.68;;;0.68;;
47373;SDS011;33123;50.118;10.272;2023-05-10T11:24:15;1.02;;;1.00;;
47373;SDS011;33123;50.118;10.272;2023-05-10T11:26:42;0.95;;;0.95;;
47373;SDS011;33123;50.118;10.272;2023-05-10T11:29:09;1.15;;;0.82;;
47373;SDS011;33123;50.118;10.272;2023-05-10T11:31:41;0.73;;;0.73;;
47373;SDS011;33123;50.118;10.272;2023-05-10T11:34:08;0.85;;;0.85;;
47373;SDS011;33123;50.118;10.272;2023-05-10T11:36:36;1.48;;;1.05;;
47373;SDS011;33123;50.118;10.272;2023-05-10T11:39:04;1.45;;;1.20;;
47373;SDS011;33123;50.118;10.272;2023-05-10T11:41:31;2.15;;;1.25;;
47373;SDS011;33123;50.118;10.272;2023-05-10T11:43:58;0.77;;;0.77;;
47373;SDS011;33123;50.118;10.272;2023-05-10T11:46:26;0.77;;;0.77;;
47373;SDS011;33123;50.118;10.272;2023-05-10T11:48:55;0.80;;;0.80;;
47373;SDS011;33123;50.118;10.272;2023-05-10T11:51:23;0.90;;;0.90;;
47373;SDS011;33123;50.118;10.272;2023-05-10T11:53:52;1.23;;;1.20;;
47373;SDS011;33123;50.118;10.272;2023-05-10T11:56:22;0.80;;;0.80;;
47373;SDS011;33123;50.118;10.272;2023-05-10T11:58:51;0.90;;;0.90;;
47373;SDS011;33123;50.118;10.272;2023-05-10T12:01:20;0.80;;;0.80;;
47373;SDS011;33123;50.118;10.272;2023-05-10T12:03:48;0.88;;;0.88;;
47373;SDS011;33123;50.118;10.272;2023-05-10T12:06:16;1.15;;;1.05;;
47373;SDS011;33123;50.118;10.272;2023-05-10T12:08:44;0.80;;;0.80;;
47373;SDS011;33123;50.118;10.272;2023-05-10T12:11:11;0.82;;;0.82;;
47373;SDS011;33123;50.118;10.272;2023-05-10T12:13:43;0.70;;;0.70;;
47373;SDS011;33123;50.118;10.272;2023-05-10T12:16:15;1.25;;;1.17;;
47373;SDS011;33123;50.118;10.272;2023-05-10T12:18:43;0.75;;;0.73;;
47373;SDS011;33123;50.118;10.272;2023-05-10T12:21:10;0.90;;;0.90;;
47373;SDS011;33123;50.118;10.272;2023-05-10T12:23:37;0.68;;;0.68;;
47373;SDS011;33123;50.118;10.272;2023-05-10T12:26:04;0.80;;;0.80;;
47373;SDS011;33123;50.118;10.272;2023-05-10T12:28:31;0.93;;;0.93;;
47373;SDS011;33123;50.118;10.272;2023-05-10T12:31:01;0.73;;;0.73;;
47373;SDS011;33123;50.118;10.272;2023-05-10T12:33:35;1.00;;;0.90;;
47373;SDS011;33123;50.118;10.272;2023-05-10T12:36:04;2.13;;;1.02;;
47373;SDS011;33123;50.118;10.272;2023-05-10T12:38:32;0.98;;;0.98;;
47373;SDS011;33123;50.118;10.272;2023-05-10T12:41:00;0.70;;;0.70;;
47373;SDS011;33123;50.118;10.272;2023-05-10T12:43:28;0.75;;;0.75;;
47373;SDS011;33123;50.118;10.272;2023-05-10T12:45:55;0.90;;;0.88;;
47373;SDS011;33123;50.118;10.272;2023-05-10T12:48:23;0.88;;;0.88;;
47373;SDS011;33123;50.118;10.272;2023-05-10T12:50:50;0.90;;;0.90;;
47373;SDS011;33123;50.118;10.272;2023-05-10T12:53:17;1.35;;;1.25;;
47373;SDS011;33123;50.118;10.272;2023-05-10T12:55:44;0.77;;;0.77;;
47373;SDS011;33123;50.118;10.272;2023-05-10T12:58:10;1.00;;;1.00;;
47373;SDS011;33123;50.118;10.272;2023-05-10T13:00:37;0.93;;;0.93;;
47373;SDS011;33123;50.118;10.272;2023-05-10T13:06:46;1.30;;;1.08;;
47373;SDS011;33123;50.118;10.272;2023-05-10T13:09:13;1.10;;;0.98;;
47373;SDS011;33123;50.118;10.272;2023-05-10T13:11:40;1.20;;;1.20;;
47373;SDS011;33123;50.118;10.272;2023-05-10T13:14:07;0.80;;;0.80;;
47373;SDS011;33123;50.118;10.272;2023-05-10T13:16:33;0.95;;;0.93;;
47373;SDS011;33123;50.118;10.272;2023-05-10T13:19:00;1.05;;;1.05;;
47373;SDS011;33123;50.118;10.272;2023-05-10T13:21:28;0.90;;;0.90;;
47373;SDS011;33123;50.118;10.272;2023-05-10T13:23:56;0.88;;;0.88;;
47373;SDS011;33123;50.118;10.272;2023-05-10T13:26:22;1.13;;;1.02;;
47373;SDS011;33123;50.118;10.272;2023-05-10T13:28:50;1.05;;;1.05;;
47373;SDS011;33123;50.118;10.272;2023-05-10T13:31:17;1.00;;;1.00;;
47373;SDS011;33123;50.118;10.272;2023-05-10T13:33:44;0.75;;;0.75;;
47373;SDS011;33123;50.118;10.272;2023-05-10T13:36:10;0.60;;;0.60;;
47373;SDS011;33123;50.118;10.272;2023-05-10T13:38:37;1.20;;;1.10;;
47373;SDS011;33123;50.118;10.272;2023-05-10T13:41:05;1.42;;;1.33;;
47373;SDS011;33123;50.118;10.272;2023-05-10T13:43:31;1.20;;;1.20;;
47373;SDS011;33123;50.118;10.272;2023-05-10T13:45:58;0.95;;;0.95;;
47373;SDS011;33123;50.118;10.272;2023-05-10T13:48:25;0.80;;;0.80;;
47373;SDS011;33123;50.118;10.272;2023-05-10T13:50:51;1.05;;;0.98;;
47373;SDS011;33123;50.118;10.272;2023-05-10T13:53:18;0.70;;;0.70;;
47373;SDS011;33123;50.118;10.272;2023-05-10T13:55:45;0.90;;;0.90;;
47373;SDS011;33123;50.118;10.272;2023-05-10T13:58:13;0.68;;;0.68;;
47373;SDS011;33123;50.118;10.272;2023-05-10T14:00:40;1.73;;;1.42;;
47373;SDS011;33123;50.118;10.272;2023-05-10T14:03:06;5.97;;;4.50;;
47373;SDS011;33123;50.118;10.272;2023-05-10T14:05:35;3.03;;;2.60;;
47373;SDS011;33123;50.118;10.272;2023-05-10T14:08:02;0.82;;;0.82;;
47373;SDS011;33123;50.118;10.272;2023-05-10T14:10:29;0.70;;;0.70;;
47373;SDS011;33123;50.118;10.272;2023-05-10T14:12:56;5.93;;;1.38;;
47373;SDS011;33123;50.118;10.272;2023-05-10T14:15:25;0.70;;;0.70;;
47373;SDS011;33123;50.118;10.272;2023-05-10T14:17:51;0.57;;;0.57;;
47373;SDS011;33123;50.118;10.272;2023-05-10T14:20:18;0.60;;;0.60;;
47373;SDS011;33123;50.118;10.272;2023-05-10T14:22:44;0.52;;;0.52;;
47373;SDS011;33123;50.118;10.272;2023-05-10T14:25:11;0.60;;;0.60;;
47373;SDS011;33123;50.118;10.272;2023-05-10T14:27:38;0.70;;;0.70;;
47373;SDS011;33123;50.118;10.272;2023-05-10T14:30:05;0.50;;;0.50;;
47373;SDS011;33123;50.118;10.272;2023-05-10T14:32:34;0.70;;;0.70;;
47373;SDS011;33123;50.118;10.272;2023-05-10T14:35:01;0.60;;;0.60;;
47373;SDS011;33123;50.118;10.272;2023-05-10T14:37:28;0.50;;;0.50;;
47373;SDS011;33123;50.118;10.272;2023-05-10T14:39:55;0.50;;;0.50;;
47373;SDS011;33123;50.118;10.272;2023-05-10T14:42:21;0.60;;;0.60;;
47373;SDS011;33123;50.118;10.272;2023-05-10T14:44:48;0.70;;;0.70;;
47373;SDS011;33123;50.118;10.272;2023-05-10T14:47:15;0.93;;;0.90;;